createdAt,value
2022-10-20T00:01:09.755Z,96795.34
2022-10-20T00:03:37.628Z,96793.00
2022-10-20T00:06:25.213Z,96793.06
2022-10-20T00:08:53.470Z,96795.75
2022-10-20T00:11:21.849Z,96793.34
2022-10-20T00:13:51.015Z,96790.97
2022-10-20T00:16:18.830Z,96795.22
2022-10-20T00:18:45.682Z,96810.09
2022-10-20T00:21:18.937Z,96800.78
2022-10-20T00:23:45.900Z,96797.25
2022-10-20T00:26:16.671Z,96796.28
2022-10-20T00:28:44.145Z,96796.28
2022-10-20T00:31:11.975Z,96797.25
2022-10-20T00:33:38.936Z,96793.00
2022-10-20T00:36:08.527Z,96786.38
2022-10-20T00:38:35.966Z,96782.88
2022-10-20T00:41:03.488Z,96775.50
2022-10-20T00:43:52.211Z,96768.81
2022-10-20T00:46:30.772Z,96759.50
2022-10-20T00:49:14.420Z,96762.06
2022-10-20T00:51:42.700Z,96771.28
2022-10-20T00:54:13.753Z,96771.59
2022-10-20T00:56:42.221Z,96758.34
2022-10-20T00:59:11.048Z,96762.50
2022-10-20T01:01:39.105Z,96752.38
2022-10-20T01:04:06.369Z,96748.72
2022-10-20T01:06:33.486Z,96752.91
2022-10-20T01:09:00.960Z,96745.72
2022-10-20T01:11:27.734Z,96746.56
2022-10-20T01:14:12.926Z,96745.09
2022-10-20T01:16:46.578Z,96741.31
2022-10-20T01:19:25.544Z,96742.28
2022-10-20T01:22:19.827Z,96742.94
2022-10-20T01:25:02.382Z,96739.03
2022-10-20T01:27:39.831Z,96735.78
2022-10-20T01:30:11.999Z,96738.53
2022-10-20T01:32:53.112Z,96733.72
2022-10-20T01:35:19.816Z,96723.56
2022-10-20T01:38:10.090Z,96729.47
2022-10-20T01:40:45.196Z,96712.22
2022-10-20T01:43:15.151Z,96713.94
2022-10-20T01:45:45.850Z,96709.72
2022-10-20T01:48:15.602Z,96701.41
2022-10-20T01:50:43.389Z,96704.72
2022-10-20T01:53:10.319Z,96690.22
2022-10-20T01:55:38.772Z,96693.06
2022-10-20T01:58:21.184Z,96686.69
2022-10-20T02:00:51.212Z,96690.28
2022-10-20T02:03:36.779Z,96679.41
2022-10-20T02:10:14.492Z,96673.13
2022-10-20T02:12:45.466Z,96666.13
2022-10-20T02:15:18.153Z,96662.50
2022-10-20T02:17:49.351Z,96663.44
2022-10-20T02:20:17.583Z,96652.88
2022-10-20T02:22:45.140Z,96650.25
2022-10-20T02:25:12.989Z,96651.41
2022-10-20T02:27:44.894Z,96648.25
2022-10-20T02:30:15.489Z,96647.66
2022-10-20T02:32:44.394Z,96649.75
2022-10-20T02:35:14.868Z,96644.31
2022-10-20T02:37:41.690Z,96641.25
2022-10-20T02:40:09.223Z,96646.34
2022-10-20T02:42:36.076Z,96641.97
2022-10-20T02:45:03.969Z,96642.53
2022-10-20T02:47:30.746Z,96631.88
2022-10-20T02:49:57.623Z,96637.72
2022-10-20T02:52:24.458Z,96639.41
2022-10-20T02:54:51.321Z,96642.97
2022-10-20T02:57:18.101Z,96643.53
2022-10-20T02:59:44.913Z,96636.72
2022-10-20T03:02:11.777Z,96648.81
2022-10-20T03:04:38.553Z,96646.91
2022-10-20T03:07:05.357Z,96641.81
2022-10-20T03:09:32.339Z,96644.16
2022-10-20T03:11:59.120Z,96650.16
2022-10-20T03:14:25.924Z,96654.19
2022-10-20T03:16:52.768Z,96647.66
2022-10-20T03:19:19.638Z,96643.97
2022-10-20T03:21:46.928Z,96647.66
2022-10-20T03:24:13.722Z,96635.56
2022-10-20T03:26:40.544Z,96637.66
2022-10-20T03:29:07.553Z,96636.38
2022-10-20T03:31:34.454Z,96630.06
2022-10-20T03:34:01.303Z,96631.88
2022-10-20T03:36:28.078Z,96630.16
2022-10-20T03:38:54.892Z,96622.19
2022-10-20T03:41:21.765Z,96620.41
2022-10-20T03:43:48.527Z,96618.25
2022-10-20T03:46:15.393Z,96604.72
2022-10-20T03:48:42.308Z,96602.69
2022-10-20T03:51:12.248Z,96609.16
2022-10-20T03:53:39.035Z,96601.38
2022-10-20T03:56:10.857Z,96589.19
2022-10-20T03:58:37.887Z,96586.19
2022-10-20T04:01:06.530Z,96579.91
2022-10-20T04:03:33.355Z,96574.47
2022-10-20T04:06:02.757Z,96571.59
2022-10-20T04:08:29.635Z,96572.06
2022-10-20T04:10:57.496Z,96569.88
2022-10-20T04:13:24.443Z,96564.56
2022-10-20T04:15:51.247Z,96571.97
2022-10-20T04:18:18.001Z,96571.72
2022-10-20T04:20:44.918Z,96572.16
2022-10-20T04:23:11.989Z,96572.66
2022-10-20T04:25:45.957Z,96567.22
2022-10-20T04:28:13.714Z,96580.84
2022-10-20T04:30:40.545Z,96591.34
2022-10-20T04:33:07.342Z,96581.56
2022-10-20T04:35:34.395Z,96577.44
2022-10-20T04:38:03.641Z,96570.13
2022-10-20T04:40:30.513Z,96569.22
2022-10-20T04:43:00.274Z,96578.84
2022-10-20T04:45:27.554Z,96575.16
2022-10-20T04:47:54.870Z,96580.19
2022-10-20T04:50:22.071Z,96580.06
2022-10-20T04:53:01.568Z,96565.44
2022-10-20T04:55:28.344Z,96560.34
2022-10-20T04:57:55.218Z,96571.84
2022-10-20T05:00:22.007Z,96563.50
2022-10-20T05:02:48.786Z,96558.13
2022-10-20T05:05:15.644Z,96550.03
2022-10-20T05:07:42.547Z,96546.31
2022-10-20T05:10:09.876Z,96550.97
2022-10-20T05:12:36.969Z,96546.00
2022-10-20T05:15:04.515Z,96544.81
2022-10-20T05:17:31.569Z,96540.97
2022-10-20T05:19:58.411Z,96544.28
2022-10-20T05:22:25.192Z,96550.28
2022-10-20T05:24:52.045Z,96547.69
2022-10-20T05:27:18.825Z,96551.13
2022-10-20T05:29:45.594Z,96536.47
2022-10-20T05:32:12.380Z,96532.94
2022-10-20T05:34:39.366Z,96524.44
2022-10-20T05:37:06.146Z,96518.31
2022-10-20T05:39:32.961Z,96518.00
2022-10-20T05:41:59.921Z,96523.09
2022-10-20T05:44:26.814Z,96528.44
2022-10-20T05:46:53.552Z,96532.66
2022-10-20T05:49:20.393Z,96532.41
2022-10-20T05:51:47.512Z,96529.97
2022-10-20T05:54:14.798Z,96530.81
2022-10-20T05:56:41.658Z,96533.25
2022-10-20T05:59:09.725Z,96531.75
2022-10-20T06:01:49.128Z,96529.81
2022-10-20T06:04:23.769Z,96531.03
2022-10-20T06:06:52.220Z,96536.09
2022-10-20T06:09:20.451Z,96527.75
2022-10-20T06:11:47.965Z,96538.44
2022-10-20T06:14:14.920Z,96538.19
2022-10-20T06:16:41.686Z,96545.31
2022-10-20T06:19:08.481Z,96544.19
2022-10-20T06:21:37.321Z,96550.75
2022-10-20T06:24:05.962Z,96550.09
2022-10-20T06:26:36.544Z,96548.75
2022-10-20T06:29:05.923Z,96549.16
2022-10-20T06:31:36.062Z,96545.63
2022-10-20T06:34:05.782Z,96553.28
2022-10-20T06:36:35.440Z,96558.22
2022-10-20T06:39:04.579Z,96556.16
2022-10-20T06:41:31.914Z,96548.34
2022-10-20T06:44:00.012Z,96544.25
2022-10-20T06:46:32.399Z,96553.41
2022-10-20T06:49:05.193Z,96550.56
2022-10-20T06:51:33.365Z,96554.84
2022-10-20T06:54:00.968Z,96542.84
2022-10-20T06:56:30.442Z,96548.84
2022-10-20T06:58:58.475Z,96542.44
2022-10-20T07:01:37.133Z,96541.47
2022-10-20T07:04:11.253Z,96537.38
2022-10-20T07:06:40.292Z,96539.16
2022-10-20T07:09:09.232Z,96537.38
2022-10-20T07:11:36.196Z,96529.97
2022-10-20T07:14:04.085Z,96531.75
2022-10-20T07:16:33.608Z,96530.09
2022-10-20T07:19:01.990Z,96537.22
2022-10-20T07:21:34.939Z,96528.84
2022-10-20T07:24:06.313Z,96529.66
2022-10-20T07:26:36.137Z,96524.56
2022-10-20T07:29:04.173Z,96530.84
2022-10-20T07:31:37.316Z,96516.03
2022-10-20T07:34:23.766Z,96508.31
2022-10-20T07:36:53.186Z,96509.38
2022-10-20T07:39:20.136Z,96506.88
2022-10-20T07:41:48.344Z,96507.97
2022-10-20T07:44:16.005Z,96499.25
2022-10-20T07:46:43.262Z,96501.31
2022-10-20T07:49:42.853Z,96500.56
2022-10-20T07:51:57.176Z,96496.13
2022-10-20T07:54:23.977Z,96490.50
2022-10-20T07:56:50.948Z,96494.84
2022-10-20T07:59:17.771Z,96491.50
2022-10-20T08:01:44.854Z,96482.94
2022-10-20T08:04:12.035Z,96486.59
2022-10-20T08:06:39.637Z,96478.84
2022-10-20T08:09:07.606Z,96475.34
2022-10-20T08:11:35.457Z,96481.44
2022-10-20T08:14:02.245Z,96480.41
2022-10-20T08:16:40.031Z,96478.13
2022-10-20T08:19:19.273Z,96471.34
2022-10-20T08:21:46.095Z,96471.38
2022-10-20T08:24:12.924Z,96461.66
2022-10-20T08:26:39.770Z,96459.09
2022-10-20T08:29:06.705Z,96451.66
2022-10-20T08:31:33.547Z,96441.25
2022-10-20T08:34:00.464Z,96435.09
2022-10-20T08:36:28.342Z,96429.72
2022-10-20T08:38:56.512Z,96441.06
2022-10-20T08:41:55.468Z,96439.75
2022-10-20T08:44:29.262Z,96435.72
2022-10-20T08:46:56.338Z,96434.78
2022-10-20T08:49:30.785Z,96441.19
2022-10-20T08:51:58.865Z,96444.81
2022-10-20T08:54:25.836Z,96445.81
2022-10-20T08:56:52.970Z,96437.66
2022-10-20T08:59:40.053Z,96434.75
2022-10-20T09:02:15.831Z,96432.81
2022-10-20T09:04:48.341Z,96424.31
2022-10-20T09:07:35.333Z,96428.56
2022-10-20T09:10:27.222Z,96427.13
2022-10-20T09:12:54.097Z,96424.84
2022-10-20T09:15:22.747Z,96421.06
2022-10-20T09:18:12.475Z,96414.38
2022-10-20T09:20:57.229Z,96407.66
2022-10-20T09:23:40.606Z,96405.69
2022-10-20T09:26:30.485Z,96405.34
2022-10-20T09:29:14.455Z,96397.69
2022-10-20T09:31:46.508Z,96399.97
2022-10-20T09:34:28.182Z,96401.72
2022-10-20T09:37:04.693Z,96395.97
2022-10-20T09:39:54.980Z,96390.22
2022-10-20T09:42:25.059Z,96390.66
2022-10-20T09:44:58.479Z,96383.41
2022-10-20T09:47:27.527Z,96382.25
2022-10-20T09:50:01.637Z,96383.84
2022-10-20T09:52:34.510Z,96383.63
2022-10-20T09:55:17.426Z,96384.88
2022-10-20T09:57:48.384Z,96383.00
2022-10-20T10:00:44.259Z,96382.16
2022-10-20T10:03:21.604Z,96377.34
2022-10-20T10:05:52.924Z,96366.63
2022-10-20T10:08:22.025Z,96373.44
2022-10-20T10:10:59.435Z,96362.34
2022-10-20T10:13:29.302Z,96354.41
2022-10-20T10:16:09.372Z,96362.84
2022-10-20T10:18:38.508Z,96366.84
2022-10-20T10:21:08.551Z,96364.97
2022-10-20T10:23:41.118Z,96368.34
2022-10-20T10:26:47.596Z,96363.81
2022-10-20T10:29:24.333Z,96355.84
2022-10-20T10:32:01.928Z,96366.09
2022-10-20T10:34:42.707Z,96360.94
2022-10-20T10:37:14.089Z,96352.44
2022-10-20T10:39:41.845Z,96352.44
2022-10-20T10:42:28.273Z,96341.69
2022-10-20T10:45:17.299Z,96351.00
2022-10-20T10:48:14.022Z,96352.56
2022-10-20T10:51:05.760Z,96345.81
2022-10-20T10:53:54.386Z,96351.78
2022-10-20T10:56:39.633Z,96357.47
2022-10-20T10:59:12.719Z,96341.13
2022-10-20T11:02:33.829Z,96332.56
2022-10-20T11:05:19.332Z,96328.84
2022-10-20T11:07:55.072Z,96310.94
2022-10-20T11:10:28.471Z,96297.47
2022-10-20T11:13:32.828Z,96295.03
2022-10-20T11:16:39.453Z,96292.06
2022-10-20T11:19:08.999Z,96283.81
2022-10-20T11:21:56.401Z,96284.13
2022-10-20T11:24:41.512Z,96281.59
2022-10-20T11:27:13.513Z,96274.75
2022-10-20T11:29:55.215Z,96262.78
2022-10-20T11:32:26.790Z,96267.25
2022-10-20T11:35:20.801Z,96254.47
2022-10-20T11:37:55.054Z,96251.41
2022-10-20T11:40:25.197Z,96242.56
2022-10-20T11:43:08.764Z,96240.06
2022-10-20T11:45:58.284Z,96244.41
2022-10-20T11:48:40.744Z,96234.75
2022-10-20T11:51:28.482Z,96240.22
2022-10-20T11:54:33.806Z,96247.84
2022-10-20T11:57:15.611Z,96234.84
2022-10-20T11:59:54.632Z,96225.31
2022-10-20T12:02:44.578Z,96219.72
2022-10-20T12:05:39.079Z,96214.28
2022-10-20T12:08:52.564Z,96218.22
2022-10-20T12:11:41.173Z,96219.94
2022-10-20T12:14:26.547Z,96197.63
2022-10-20T12:16:56.013Z,96196.81
2022-10-20T12:19:30.875Z,96191.97
2022-10-20T12:22:05.264Z,96182.34
2022-10-20T12:25:01.874Z,96176.69
2022-10-20T12:27:29.718Z,96188.38
2022-10-20T12:30:33.275Z,96180.13
2022-10-20T12:33:17.325Z,96184.38
2022-10-20T12:36:14.881Z,96177.06
2022-10-20T12:38:43.309Z,96172.47
2022-10-20T12:41:25.449Z,96166.41
2022-10-20T12:44:00.799Z,96173.34
2022-10-20T12:46:31.574Z,96180.00
2022-10-20T12:49:03.872Z,96183.34
2022-10-20T12:51:37.939Z,96180.50
2022-10-20T12:54:32.684Z,96183.63
2022-10-20T12:57:04.848Z,96176.09
2022-10-20T12:59:38.179Z,96186.91
2022-10-20T13:02:11.211Z,96187.25
2022-10-20T13:04:53.294Z,96181.31
2022-10-20T13:07:48.187Z,96184.31
2022-10-20T13:10:27.341Z,96186.19
2022-10-20T13:13:16.145Z,96176.81
2022-10-20T13:15:48.211Z,96173.31
2022-10-20T13:18:26.882Z,96152.13
2022-10-20T13:20:56.644Z,96148.94
2022-10-20T13:23:31.714Z,96152.16
2022-10-20T13:26:04.261Z,96159.56
2022-10-20T13:28:32.359Z,96161.53
2022-10-20T13:31:09.114Z,96158.53
2022-10-20T13:34:03.217Z,96155.41
2022-10-20T13:36:56.012Z,96164.06
2022-10-20T13:40:13.567Z,96163.59
2022-10-20T13:42:49.741Z,96164.06
2022-10-20T13:45:48.348Z,96168.78
2022-10-20T13:48:31.549Z,96155.13
2022-10-20T13:51:05.942Z,96152.13
2022-10-20T13:53:45.781Z,96151.47
2022-10-20T13:56:15.310Z,96145.28
2022-10-20T13:58:59.022Z,96147.09
2022-10-20T14:01:31.135Z,96145.97
2022-10-20T14:03:58.121Z,96146.28
2022-10-20T14:06:28.297Z,96146.81
2022-10-20T14:08:55.917Z,96149.56
2022-10-20T14:11:23.217Z,96155.25
2022-10-20T14:13:50.607Z,96158.44
2022-10-20T14:16:22.648Z,96146.22
2022-10-20T14:19:03.676Z,96155.09
2022-10-20T14:21:39.448Z,96141.56
2022-10-20T14:24:12.476Z,96133.44
2022-10-20T14:26:44.243Z,96126.66
2022-10-20T14:29:17.381Z,96119.78
2022-10-20T14:31:46.313Z,96128.06
2022-10-20T14:34:23.231Z,96142.00
2022-10-20T14:36:51.605Z,96137.56
2022-10-20T14:39:34.394Z,96137.91
2022-10-20T14:42:25.375Z,96144.31
2022-10-20T14:44:53.846Z,96145.19
2022-10-20T14:47:21.373Z,96135.44
2022-10-20T14:49:52.693Z,96133.88
2022-10-20T14:52:21.893Z,96141.06
2022-10-20T14:54:51.041Z,96134.78
2022-10-20T14:57:17.764Z,96150.06
2022-10-20T14:59:50.686Z,96147.47
2022-10-20T15:02:20.736Z,96143.38
2022-10-20T15:04:52.182Z,96133.81
2022-10-20T15:07:23.469Z,96133.19
2022-10-20T15:10:04.199Z,96136.00
2022-10-20T15:12:42.864Z,96128.25
2022-10-20T15:15:12.837Z,96128.56
2022-10-20T15:17:44.127Z,96125.47
2022-10-20T15:20:39.868Z,96125.13
2022-10-20T15:23:18.189Z,96116.34
2022-10-20T15:25:50.824Z,96120.56
2022-10-20T15:28:40.583Z,96128.53
2022-10-20T15:31:22.987Z,96123.59
2022-10-20T15:33:50.392Z,96134.25
2022-10-20T15:36:29.008Z,96135.13
2022-10-20T15:38:56.623Z,96135.66
2022-10-20T15:41:28.693Z,96133.16
2022-10-20T15:43:55.657Z,96132.56
2022-10-20T15:46:23.052Z,96125.66
2022-10-20T15:48:49.925Z,96124.25
2022-10-20T15:51:26.408Z,96130.53
2022-10-20T15:53:53.567Z,96119.50
2022-10-20T15:56:21.176Z,96104.84
2022-10-20T15:58:50.146Z,96108.81
2022-10-20T16:01:18.437Z,96107.50
2022-10-20T16:03:46.444Z,96107.13
2022-10-20T16:06:15.133Z,96098.59
2022-10-20T16:08:46.994Z,96091.94
2022-10-20T16:11:15.063Z,96103.41
2022-10-20T16:13:42.328Z,96110.16
2022-10-20T16:16:13.044Z,96117.97
2022-10-20T16:18:39.956Z,96120.97
2022-10-20T16:21:07.672Z,96118.44
2022-10-20T16:23:42.197Z,96122.59
2022-10-20T16:26:12.583Z,96115.53
2022-10-20T16:28:39.520Z,96112.09
2022-10-20T16:31:08.874Z,96098.59
2022-10-20T16:33:36.031Z,96098.97
2022-10-20T16:36:05.487Z,96099.50
2022-10-20T16:38:37.358Z,96102.56
2022-10-20T16:41:10.267Z,96088.53
2022-10-20T16:43:41.654Z,96080.53
2022-10-20T16:46:09.837Z,96070.84
2022-10-20T16:48:39.025Z,96061.41
2022-10-20T16:51:11.456Z,96065.38
2022-10-20T16:53:38.242Z,96061.91
2022-10-20T16:56:05.554Z,96059.81
2022-10-20T16:58:32.388Z,96063.41
2022-10-20T17:01:06.356Z,96056.41
2022-10-20T17:03:33.403Z,96040.69
2022-10-20T17:06:03.484Z,96023.72
2022-10-20T17:08:32.083Z,96025.88
2022-10-20T17:11:04.938Z,96035.84
2022-10-20T17:13:32.237Z,96040.81
2022-10-20T17:16:05.807Z,96042.00
2022-10-20T17:18:33.006Z,96035.91
2022-10-20T17:20:59.889Z,96050.69
2022-10-20T17:23:26.988Z,96050.75
2022-10-20T17:25:58.292Z,96047.47
2022-10-20T17:28:25.073Z,96054.34
2022-10-20T17:30:53.191Z,96057.28
2022-10-20T17:33:19.968Z,96067.38
2022-10-20T17:35:50.439Z,96078.69
2022-10-20T17:38:17.208Z,96074.91
2022-10-20T17:40:44.022Z,96083.44
2022-10-20T17:43:10.804Z,96086.69
2022-10-20T17:45:38.370Z,96075.88
2022-10-20T17:48:05.528Z,96072.97
2022-10-20T17:50:32.496Z,96059.34
2022-10-20T17:53:01.314Z,96064.41
2022-10-20T17:55:28.432Z,96055.59
2022-10-20T17:57:55.404Z,96057.75
2022-10-20T18:00:31.834Z,96054.63
2022-10-20T18:03:09.079Z,96053.66
2022-10-20T18:05:36.583Z,96043.16
2022-10-20T18:08:03.489Z,96033.78
2022-10-20T18:10:30.349Z,96022.22
2022-10-20T18:12:57.149Z,96014.63
2022-10-20T18:15:23.909Z,96020.13
2022-10-20T18:17:50.791Z,96017.81
2022-10-20T18:20:17.738Z,96014.88
2022-10-20T18:22:45.598Z,96027.44
2022-10-20T18:25:12.390Z,96040.34
2022-10-20T18:27:39.161Z,96041.63
2022-10-20T18:30:08.156Z,96051.94
2022-10-20T18:32:36.529Z,96047.97
2022-10-20T18:35:03.751Z,96048.25
2022-10-20T18:37:30.537Z,96038.22
2022-10-20T18:39:57.310Z,96046.56
2022-10-20T18:42:24.091Z,96038.34
2022-10-20T18:44:50.879Z,96043.66
2022-10-20T18:47:17.727Z,96039.06
2022-10-20T18:49:44.559Z,96036.25
2022-10-20T18:52:11.371Z,96035.38
2022-10-20T18:54:39.585Z,96031.75
2022-10-20T18:57:06.397Z,96016.03
2022-10-20T18:59:33.214Z,96007.25
2022-10-20T19:01:59.999Z,95998.00
2022-10-20T19:04:26.936Z,95984.16
2022-10-20T19:06:53.907Z,95975.56
2022-10-20T19:09:21.460Z,95972.13
2022-10-20T19:14:17.386Z,95953.53
2022-10-20T19:16:47.113Z,95936.78
2022-10-20T19:19:14.508Z,95929.09
2022-10-20T19:21:41.437Z,95928.09
2022-10-20T19:24:16.727Z,95914.19
2022-10-20T19:26:52.780Z,95890.78
2022-10-20T19:29:29.582Z,95893.94
2022-10-20T19:31:59.517Z,95885.97
2022-10-20T19:34:29.368Z,95876.13
2022-10-20T19:36:56.743Z,95872.97
2022-10-20T19:39:27.426Z,95890.66
2022-10-20T19:41:56.595Z,95904.41
2022-10-20T19:44:23.907Z,95930.28
2022-10-20T19:46:54.368Z,95944.81
2022-10-20T19:49:22.384Z,95939.88
2022-10-20T19:51:49.296Z,95955.69
2022-10-20T19:54:16.538Z,95945.50
2022-10-20T19:56:43.455Z,95946.47
2022-10-20T19:59:11.095Z,95967.78
2022-10-20T20:01:38.935Z,95971.94
2022-10-20T20:04:06.615Z,96026.38
2022-10-20T20:06:34.901Z,96031.25
2022-10-20T20:09:05.453Z,96039.94
2022-10-20T20:11:32.708Z,96029.25
2022-10-20T20:14:06.868Z,96057.13
2022-10-20T20:16:34.059Z,96056.81
2022-10-20T20:19:00.954Z,96055.81
2022-10-20T20:21:28.068Z,96068.59
2022-10-20T20:23:59.789Z,96063.81
2022-10-20T20:26:32.913Z,96088.19
2022-10-20T20:29:00.274Z,96085.75
2022-10-20T20:31:27.950Z,96086.09
2022-10-20T20:33:56.829Z,96083.66
2022-10-20T20:36:27.068Z,96089.38
2022-10-20T20:38:57.477Z,96086.06
2022-10-20T20:41:26.827Z,96089.94
2022-10-20T20:43:53.898Z,96091.59
2022-10-20T20:46:22.784Z,96082.38
2022-10-20T20:48:50.310Z,96085.63
2022-10-20T20:51:17.381Z,96072.50
2022-10-20T20:53:44.424Z,96071.19
2022-10-20T20:56:13.787Z,96067.56
2022-10-20T20:58:42.203Z,96063.50
2022-10-20T21:01:18.642Z,96059.06
2022-10-20T21:03:46.292Z,96060.38
2022-10-20T21:06:17.940Z,96054.88
2022-10-20T21:08:47.831Z,96058.56
2022-10-20T21:11:20.700Z,96057.13
2022-10-20T21:13:49.033Z,96064.97
2022-10-20T21:16:23.883Z,96067.59
2022-10-20T21:18:53.041Z,96072.84
2022-10-20T21:21:28.618Z,96069.84
2022-10-20T21:23:57.189Z,96061.84
2022-10-20T21:26:25.002Z,96069.75
2022-10-20T21:28:53.169Z,96048.78
2022-10-20T21:31:22.788Z,96049.13
2022-10-20T21:33:51.670Z,96047.34
2022-10-20T21:36:20.386Z,96052.09
2022-10-20T21:38:47.693Z,96040.63
2022-10-20T21:41:23.589Z,96042.09
2022-10-20T21:43:53.060Z,96043.38
2022-10-20T21:46:47.254Z,96048.25
2022-10-20T21:49:17.213Z,96049.91
2022-10-20T21:51:47.664Z,96056.22
2022-10-20T21:54:17.260Z,96040.84
2022-10-20T21:56:46.904Z,96029.91
2022-10-20T21:59:25.351Z,96014.25
2022-10-20T22:01:54.383Z,96012.97
2022-10-20T22:04:23.993Z,96017.22
2022-10-20T22:06:51.415Z,96017.88
2022-10-20T22:09:18.417Z,96011.00
2022-10-20T22:11:49.964Z,96013.16
2022-10-20T22:14:16.764Z,96016.41
2022-10-20T22:16:43.949Z,96035.03
2022-10-20T22:19:17.686Z,96070.38
2022-10-20T22:21:46.670Z,96050.50
2022-10-20T22:24:14.680Z,96049.81
2022-10-20T22:26:41.912Z,96047.66
2022-10-20T22:29:12.262Z,96039.41
2022-10-20T22:31:40.804Z,96040.59
2022-10-20T22:34:08.617Z,96033.09
2022-10-20T22:36:35.732Z,96030.47
2022-10-20T22:39:02.881Z,96031.63
2022-10-20T22:41:29.790Z,96028.66
2022-10-20T22:43:58.039Z,96028.84
2022-10-20T22:46:25.327Z,96032.81
2022-10-20T22:48:52.139Z,96023.69
2022-10-20T22:51:19.116Z,96023.19
2022-10-20T22:53:45.900Z,96021.22
2022-10-20T22:56:16.296Z,96015.28
2022-10-20T22:58:43.532Z,96018.16
2022-10-20T23:01:19.096Z,96011.41
2022-10-20T23:03:46.449Z,96008.44
2022-10-20T23:06:15.852Z,95995.31
2022-10-20T23:08:45.212Z,96012.22
2022-10-20T23:11:13.009Z,96003.34
2022-10-20T23:13:39.828Z,96005.50
2022-10-20T23:16:07.381Z,95992.50
2022-10-20T23:18:34.643Z,95985.69
2022-10-20T23:21:01.525Z,95976.00
2022-10-20T23:23:28.712Z,95974.66
2022-10-20T23:25:56.874Z,95977.94
2022-10-20T23:28:25.384Z,95959.03
2022-10-20T23:30:52.145Z,95963.91
2022-10-20T23:33:18.955Z,95967.06
2022-10-20T23:35:46.662Z,95962.84
2022-10-20T23:38:13.424Z,95951.19
2022-10-20T23:40:40.213Z,95949.00
2022-10-20T23:43:06.998Z,95955.44
2022-10-20T23:45:36.898Z,95955.59
2022-10-20T23:48:04.912Z,95951.19
2022-10-20T23:50:31.739Z,95957.59
2022-10-20T23:52:58.560Z,95938.63
2022-10-20T23:55:25.375Z,95939.59
2022-10-20T23:57:52.219Z,95939.88
